createdAt,value
2023-04-25T00:01:58.684Z,11.60
2023-04-25T00:04:26.657Z,12.45
2023-04-25T00:06:56.949Z,13.07
2023-04-25T00:09:23.751Z,8.98
2023-04-25T00:11:50.754Z,10.43
2023-04-25T00:14:17.817Z,10.20
2023-04-25T00:16:45.042Z,12.27
2023-04-25T00:19:12.398Z,13.53
2023-04-25T00:21:41.464Z,12.27
2023-04-25T00:24:08.575Z,10.13
2023-04-25T00:26:36.955Z,12.53
2023-04-25T00:29:03.863Z,11.20
2023-04-25T00:31:31.542Z,11.53
2023-04-25T00:33:58.367Z,12.13
2023-04-25T00:36:26.875Z,12.95
2023-04-25T00:38:54.764Z,9.70
2023-04-25T00:41:22.032Z,10.25
2023-04-25T00:43:50.767Z,11.73
2023-04-25T00:46:18.051Z,9.82
2023-04-25T00:48:44.804Z,11.10
2023-04-25T00:51:16.952Z,11.25
2023-04-25T00:53:44.198Z,12.93
2023-04-25T00:56:11.603Z,10.07
2023-04-25T00:58:39.270Z,8.02
2023-04-25T01:01:07.876Z,11.68
2023-04-25T01:03:36.678Z,11.95
2023-04-25T01:06:04.187Z,8.85
2023-04-25T01:08:31.343Z,8.55
2023-04-25T01:10:58.314Z,7.07
2023-04-25T01:13:25.216Z,7.85
2023-04-25T01:15:53.359Z,7.50
2023-04-25T01:18:21.519Z,10.20
2023-04-25T01:20:51.920Z,9.47
2023-04-25T01:23:20.692Z,7.10
2023-04-25T01:25:48.859Z,8.67
2023-04-25T01:28:16.503Z,11.30
2023-04-25T01:30:44.500Z,9.53
2023-04-25T01:33:14.000Z,9.30
2023-04-25T01:35:41.353Z,8.33
2023-04-25T01:38:08.178Z,9.83
2023-04-25T01:40:36.144Z,9.57
2023-04-25T01:43:03.025Z,8.83
2023-04-25T01:45:30.574Z,9.07
2023-04-25T01:48:00.376Z,10.63
2023-04-25T01:50:27.650Z,7.13
2023-04-25T01:52:55.055Z,8.63
2023-04-25T01:55:22.360Z,8.37
2023-04-25T01:58:00.683Z,11.90
2023-04-25T02:00:44.065Z,8.07
2023-04-25T02:03:11.187Z,8.03
2023-04-25T02:05:39.811Z,9.83
2023-04-25T02:08:09.982Z,6.40
2023-04-25T02:10:37.592Z,8.60
2023-04-25T02:13:14.354Z,6.63
2023-04-25T02:15:49.070Z,7.33
2023-04-25T02:18:18.499Z,8.33
2023-04-25T02:20:46.381Z,8.70
2023-04-25T02:23:13.526Z,9.67
2023-04-25T02:25:40.508Z,8.30
2023-04-25T02:28:07.358Z,6.07
2023-04-25T02:30:34.487Z,7.63
2023-04-25T02:33:01.341Z,8.73
2023-04-25T02:35:29.938Z,8.47
2023-04-25T02:37:56.731Z,8.30
2023-04-25T02:40:23.828Z,8.10
2023-04-25T02:42:50.686Z,6.97
2023-04-25T02:45:19.539Z,5.97
2023-04-25T02:47:46.355Z,6.03
2023-04-25T02:50:13.359Z,6.57
2023-04-25T02:52:41.324Z,8.47
2023-04-25T02:55:14.960Z,6.03
2023-04-25T02:57:43.063Z,5.90
2023-04-25T03:00:15.339Z,5.47
2023-04-25T03:02:42.220Z,7.37
2023-04-25T03:05:09.921Z,8.10
2023-04-25T03:07:37.398Z,9.73
2023-04-25T03:10:04.690Z,6.87
2023-04-25T03:12:33.263Z,5.97
2023-04-25T03:15:00.476Z,5.40
2023-04-25T03:17:27.349Z,4.53
2023-04-25T03:19:54.500Z,6.80
2023-04-25T03:22:22.234Z,5.97
2023-04-25T03:24:49.357Z,5.13
2023-04-25T03:27:16.380Z,5.87
2023-04-25T03:29:43.394Z,5.70
2023-04-25T03:32:10.892Z,3.00
2023-04-25T03:34:37.968Z,5.70
2023-04-25T03:37:05.173Z,3.77
2023-04-25T03:39:36.845Z,6.03
2023-04-25T03:42:03.968Z,4.17
2023-04-25T03:44:31.522Z,3.63
2023-04-25T03:46:59.968Z,5.23
2023-04-25T03:49:27.099Z,5.90
2023-04-25T03:52:04.516Z,2.77
2023-04-25T03:54:37.051Z,4.90
2023-04-25T03:57:14.001Z,2.47
2023-04-25T03:59:41.170Z,3.30
2023-04-25T04:02:10.828Z,5.10
2023-04-25T04:04:38.867Z,3.27
2023-04-25T04:07:06.727Z,2.57
2023-04-25T04:09:44.211Z,4.37
2023-04-25T04:12:18.235Z,2.83
2023-04-25T04:14:45.963Z,1.80
2023-04-25T04:17:12.680Z,4.80
2023-04-25T04:19:39.794Z,4.13
2023-04-25T04:22:12.937Z,4.10
2023-04-25T04:24:41.386Z,2.50
2023-04-25T04:27:10.700Z,1.93
2023-04-25T04:29:54.252Z,8.90
2023-04-25T04:32:31.761Z,2.00
2023-04-25T04:35:00.645Z,4.97
2023-04-25T04:37:27.678Z,2.80
2023-04-25T04:39:54.790Z,2.53
2023-04-25T04:42:33.765Z,2.93
2023-04-25T04:45:15.565Z,3.10
2023-04-25T04:47:49.747Z,3.13
2023-04-25T04:50:39.877Z,4.13
2023-04-25T04:53:15.655Z,3.83
2023-04-25T04:55:56.992Z,3.83
2023-04-25T04:58:53.520Z,4.03
2023-04-25T05:01:36.216Z,2.60
2023-04-25T05:04:12.493Z,4.30
2023-04-25T05:07:02.703Z,7.10
2023-04-25T05:09:32.311Z,2.80
2023-04-25T05:12:19.551Z,5.47
2023-04-25T05:14:52.072Z,2.90
2023-04-25T05:17:51.962Z,4.97
2023-04-25T05:20:25.917Z,4.37
2023-04-25T05:23:22.479Z,5.83
2023-04-25T05:26:02.764Z,3.23
2023-04-25T05:28:47.132Z,4.50
2023-04-25T05:31:25.658Z,7.20
2023-04-25T05:33:59.192Z,4.63
2023-04-25T05:36:34.585Z,4.70
2023-04-25T05:39:01.566Z,4.57
2023-04-25T05:42:06.848Z,5.17
2023-04-25T05:44:52.762Z,4.33
2023-04-25T05:47:32.334Z,4.80
2023-04-25T05:50:10.448Z,4.30
2023-04-25T05:52:53.076Z,4.70
2023-04-25T05:55:31.059Z,6.87
2023-04-25T05:57:59.759Z,3.47
2023-04-25T06:00:27.259Z,6.03
2023-04-25T06:02:54.153Z,6.37
2023-04-25T06:05:21.499Z,5.90
2023-04-25T06:07:48.553Z,8.73
2023-04-25T06:10:16.049Z,5.07
2023-04-25T06:12:43.357Z,7.50
2023-04-25T06:15:24.532Z,8.73
2023-04-25T06:17:54.879Z,5.30
2023-04-25T06:20:25.004Z,9.17
2023-04-25T06:22:53.624Z,6.70
2023-04-25T06:25:24.229Z,5.37
2023-04-25T06:27:51.476Z,4.97
2023-04-25T06:30:23.356Z,4.30
2023-04-25T06:32:53.967Z,5.37
2023-04-25T06:35:21.890Z,8.40
2023-04-25T06:37:50.483Z,4.90
2023-04-25T06:40:20.745Z,8.20
2023-04-25T06:42:47.520Z,4.67
2023-04-25T06:45:48.657Z,8.53
2023-04-25T06:48:16.640Z,5.77
2023-04-25T06:50:44.012Z,12.85
2023-04-25T06:53:12.654Z,5.32
2023-04-25T06:55:41.362Z,8.25
2023-04-25T06:58:13.755Z,5.93
2023-04-25T07:01:13.226Z,28.25
2023-04-25T07:03:40.620Z,7.13
2023-04-25T07:06:13.985Z,7.35
2023-04-25T07:08:40.828Z,6.80
2023-04-25T07:11:08.018Z,10.73
2023-04-25T07:13:37.440Z,4.82
2023-04-25T07:16:05.089Z,7.97
2023-04-25T07:18:34.321Z,90.95
2023-04-25T07:21:02.373Z,8.63
2023-04-25T07:23:30.049Z,7.55
2023-04-25T07:25:59.591Z,5.60
2023-04-25T07:28:27.328Z,5.43
2023-04-25T07:30:54.314Z,7.20
2023-04-25T07:33:21.599Z,5.32
2023-04-25T07:35:48.785Z,4.80
2023-04-25T07:38:15.668Z,11.75
2023-04-25T07:40:42.822Z,4.53
2023-04-25T07:43:15.264Z,10.65
2023-04-25T07:45:49.790Z,3.42
2023-04-25T07:48:22.076Z,5.75
2023-04-25T07:50:51.444Z,5.00
2023-04-25T07:53:19.321Z,2.92
2023-04-25T07:55:52.696Z,3.53
2023-04-25T07:58:22.867Z,5.47
2023-04-25T08:00:54.640Z,4.28
2023-04-25T08:03:46.314Z,3.03
2023-04-25T08:06:24.649Z,7.47
2023-04-25T08:09:03.934Z,4.13
2023-04-25T08:11:37.359Z,6.20
2023-04-25T08:14:04.959Z,4.75
2023-04-25T08:16:33.573Z,4.07
2023-04-25T08:19:01.741Z,5.53
2023-04-25T08:21:28.771Z,7.03
2023-04-25T08:23:59.503Z,6.27
2023-04-25T08:26:30.413Z,6.53
2023-04-25T08:28:58.280Z,5.67
2023-04-25T08:31:25.259Z,5.17
2023-04-25T08:34:00.984Z,17.83
2023-04-25T08:36:39.423Z,6.45
2023-04-25T08:39:19.264Z,7.73
2023-04-25T08:42:08.715Z,6.38
2023-04-25T08:44:36.328Z,5.77
2023-04-25T08:47:07.071Z,9.93
2023-04-25T08:49:47.039Z,10.77
2023-04-25T08:52:15.785Z,8.47
2023-04-25T08:54:49.135Z,5.38
2023-04-25T08:57:18.264Z,8.27
2023-04-25T08:59:47.760Z,7.88
2023-04-25T09:02:17.680Z,5.65
2023-04-25T09:04:47.789Z,17.52
2023-04-25T09:07:19.441Z,9.23
2023-04-25T09:09:46.319Z,5.70
2023-04-25T09:12:16.076Z,5.35
2023-04-25T09:14:43.916Z,8.20
2023-04-25T09:17:27.233Z,7.63
2023-04-25T09:20:06.794Z,7.33
2023-04-25T09:22:34.700Z,5.55
2023-04-25T09:25:05.527Z,4.38
2023-04-25T09:27:32.715Z,4.27
2023-04-25T09:30:08.632Z,10.23
2023-04-25T09:33:11.633Z,16.47
2023-04-25T09:35:43.363Z,3.93
2023-04-25T09:38:19.136Z,6.28
2023-04-25T09:40:59.940Z,5.07
2023-04-25T09:43:40.857Z,6.50
2023-04-25T09:46:12.456Z,3.47
2023-04-25T09:48:50.319Z,7.78
2023-04-25T09:51:19.461Z,10.32
2023-04-25T09:53:51.846Z,6.55
2023-04-25T09:56:37.902Z,4.27
2023-04-25T09:59:08.143Z,3.38
2023-04-25T10:01:39.334Z,10.57
2023-04-25T10:04:17.180Z,4.78
2023-04-25T10:06:54.451Z,7.53
2023-04-25T10:09:26.040Z,5.03
2023-04-25T10:11:53.953Z,6.10
2023-04-25T10:14:21.458Z,11.17
2023-04-25T10:16:48.847Z,8.40
2023-04-25T10:19:16.754Z,8.43
2023-04-25T10:22:06.999Z,13.40
2023-04-25T10:24:36.246Z,11.33
2023-04-25T10:27:03.336Z,5.43
2023-04-25T10:29:30.337Z,4.57
2023-04-25T10:31:58.108Z,5.63
2023-04-25T10:34:39.705Z,6.20
2023-04-25T10:37:09.918Z,5.13
2023-04-25T10:39:38.842Z,6.23
2023-04-25T10:42:05.624Z,4.07
2023-04-25T10:44:32.823Z,3.07
2023-04-25T10:47:01.746Z,3.53
2023-04-25T10:49:36.143Z,4.93
2023-04-25T10:52:17.874Z,2.63
2023-04-25T10:54:49.834Z,3.00
2023-04-25T10:57:32.137Z,3.97
2023-04-25T11:00:06.237Z,3.70
2023-04-25T11:02:37.846Z,3.40
2023-04-25T11:05:05.730Z,13.97
2023-04-25T11:07:39.798Z,6.63
2023-04-25T11:10:07.359Z,5.67
2023-04-25T11:12:34.260Z,5.07
2023-04-25T11:15:08.507Z,3.83
2023-04-25T11:17:36.310Z,4.70
2023-04-25T11:20:08.333Z,4.57
2023-04-25T11:22:35.205Z,3.80
2023-04-25T11:25:06.765Z,2.73
2023-04-25T11:27:33.602Z,9.40
2023-04-25T11:30:11.163Z,5.07
2023-04-25T11:32:38.212Z,6.43
2023-04-25T11:35:07.062Z,4.13
2023-04-25T11:37:35.110Z,5.67
2023-04-25T11:40:03.080Z,24.03
2023-04-25T11:42:31.074Z,5.20
2023-04-25T11:44:58.118Z,6.60
2023-04-25T11:47:32.267Z,5.83
2023-04-25T11:50:00.795Z,6.13
2023-04-25T11:52:44.903Z,4.40
2023-04-25T11:55:19.877Z,5.40
2023-04-25T11:57:50.393Z,3.60
2023-04-25T12:00:22.385Z,4.00
2023-04-25T12:02:54.015Z,4.57
2023-04-25T12:07:54.294Z,4.30
2023-04-25T12:10:21.714Z,6.03
2023-04-25T12:12:49.245Z,4.20
2023-04-25T12:15:27.040Z,5.87
2023-04-25T12:17:55.979Z,7.03
2023-04-25T12:20:26.852Z,9.03
2023-04-25T12:22:54.321Z,6.47
2023-04-25T12:25:42.884Z,7.57
2023-04-25T12:28:17.195Z,5.83
2023-04-25T12:30:59.064Z,8.03
2023-04-25T12:33:27.930Z,4.15
2023-04-25T12:35:56.006Z,5.50
2023-04-25T12:38:24.360Z,9.67
2023-04-25T12:40:51.754Z,8.88
2023-04-25T12:43:19.011Z,12.47
2023-04-25T12:45:48.828Z,7.37
2023-04-25T12:48:15.790Z,9.23
2023-04-25T12:50:43.387Z,6.40
2023-04-25T12:53:10.776Z,8.55
2023-04-25T12:55:38.047Z,6.82
2023-04-25T12:58:04.837Z,5.93
2023-04-25T13:00:32.845Z,12.20
2023-04-25T13:03:00.399Z,6.50
2023-04-25T13:05:27.736Z,7.20
2023-04-25T13:07:54.635Z,9.13
2023-04-25T13:10:22.325Z,6.38
2023-04-25T13:12:49.134Z,5.88
2023-04-25T13:15:16.696Z,5.45
2023-04-25T13:17:43.757Z,6.78
2023-04-25T13:20:11.452Z,4.55
2023-04-25T13:22:39.884Z,1.65
2023-04-25T13:25:08.509Z,14.70
2023-04-25T13:27:36.786Z,7.65
2023-04-25T13:30:08.560Z,5.72
2023-04-25T13:32:39.487Z,6.35
2023-04-25T13:35:11.337Z,7.53
2023-04-25T13:37:38.882Z,15.45
2023-04-25T13:40:10.165Z,9.57
2023-04-25T13:42:40.357Z,11.05
2023-04-25T13:45:08.624Z,19.65
2023-04-25T13:47:36.314Z,5.35
2023-04-25T13:50:04.900Z,10.48
2023-04-25T13:52:31.726Z,5.35
2023-04-25T13:55:08.062Z,8.88
2023-04-25T13:57:36.169Z,7.65
2023-04-25T14:00:09.759Z,25.48
2023-04-25T14:02:37.162Z,4.50
2023-04-25T14:05:05.614Z,5.88
2023-04-25T14:07:32.627Z,29.73
2023-04-25T14:09:59.854Z,29.58
2023-04-25T14:12:27.125Z,20.95
2023-04-25T14:14:56.878Z,6.70
2023-04-25T14:17:23.593Z,6.50
2023-04-25T14:19:51.358Z,20.20
2023-04-25T14:22:18.093Z,7.32
2023-04-25T14:24:45.144Z,23.38
2023-04-25T14:27:12.340Z,19.30
2023-04-25T14:29:39.320Z,14.57
2023-04-25T14:32:06.449Z,20.33
2023-04-25T14:34:33.435Z,11.97
2023-04-25T14:37:01.305Z,7.50
2023-04-25T14:39:28.327Z,10.70
2023-04-25T14:41:55.016Z,8.82
2023-04-25T14:44:22.044Z,8.33
2023-04-25T14:46:49.038Z,10.15
2023-04-25T14:49:16.206Z,8.40
2023-04-25T14:51:42.933Z,8.97
2023-04-25T14:54:09.951Z,10.53
2023-04-25T14:56:37.117Z,9.80
2023-04-25T14:59:04.134Z,9.73
2023-04-25T15:01:30.970Z,4.67
2023-04-25T15:03:58.856Z,7.73
2023-04-25T15:06:29.639Z,6.20
2023-04-25T15:08:58.022Z,3.83
2023-04-25T15:11:24.855Z,6.23
2023-04-25T15:13:52.223Z,3.60
2023-04-25T15:16:19.313Z,8.07
2023-04-25T15:18:46.318Z,6.00
2023-04-25T15:21:13.107Z,5.10
2023-04-25T15:23:40.217Z,8.20
2023-04-25T15:26:07.072Z,8.63
2023-04-25T15:28:34.673Z,11.10
2023-04-25T15:31:01.653Z,14.50
2023-04-25T15:33:28.715Z,11.57
2023-04-25T15:35:55.411Z,11.40
2023-04-25T15:38:22.491Z,9.30
2023-04-25T15:40:49.288Z,6.33
2023-04-25T15:43:17.303Z,7.53
2023-04-25T15:45:44.188Z,7.43
2023-04-25T15:48:11.876Z,9.67
2023-04-25T15:50:39.004Z,8.03
2023-04-25T15:53:07.273Z,8.87
2023-04-25T15:55:34.924Z,10.67
2023-04-25T15:58:01.965Z,10.53
2023-04-25T16:00:29.485Z,9.87
2023-04-25T16:02:56.784Z,11.37
2023-04-25T16:05:23.956Z,10.33
2023-04-25T16:07:53.703Z,8.00
2023-04-25T16:10:21.670Z,16.53
2023-04-25T16:12:50.160Z,13.93
2023-04-25T16:15:17.822Z,14.37
2023-04-25T16:17:44.980Z,12.43
2023-04-25T16:20:13.479Z,11.73
2023-04-25T16:22:41.831Z,12.10
2023-04-25T16:25:09.353Z,17.40
2023-04-25T16:27:39.923Z,26.53
2023-04-25T16:30:11.614Z,27.20
2023-04-25T16:32:39.965Z,51.77
2023-04-25T16:35:07.574Z,63.63
2023-04-25T16:37:34.702Z,90.50
2023-04-25T16:40:01.427Z,68.10
2023-04-25T16:42:28.547Z,64.37
2023-04-25T16:44:56.032Z,31.17
2023-04-25T16:47:23.088Z,13.60
2023-04-25T16:49:50.802Z,15.00
2023-04-25T16:52:17.836Z,16.33
2023-04-25T16:54:44.521Z,18.53
2023-04-25T16:57:13.717Z,22.77
2023-04-25T16:59:40.435Z,17.25
2023-04-25T17:02:12.304Z,16.90
2023-04-25T17:04:39.779Z,16.83
2023-04-25T17:07:08.148Z,16.80
2023-04-25T17:09:35.096Z,15.10
2023-04-25T17:12:03.779Z,22.57
2023-04-25T17:14:32.419Z,24.43
2023-04-25T17:16:59.599Z,25.03
2023-04-25T17:19:26.572Z,22.27
2023-04-25T17:21:53.714Z,21.10
2023-04-25T17:24:21.899Z,16.10
2023-04-25T17:26:49.140Z,15.07
2023-04-25T17:29:16.089Z,14.03
2023-04-25T17:31:44.348Z,16.57
2023-04-25T17:34:16.417Z,20.63
2023-04-25T17:36:44.994Z,20.27
2023-04-25T17:39:11.751Z,28.13
2023-04-25T17:41:38.933Z,25.73
2023-04-25T17:44:05.746Z,28.53
2023-04-25T17:46:33.107Z,25.20
2023-04-25T17:48:59.938Z,21.80
2023-04-25T17:51:27.404Z,20.77
2023-04-25T17:53:54.176Z,20.30
2023-04-25T17:56:27.268Z,21.37
2023-04-25T17:58:54.942Z,24.60
2023-04-25T18:01:22.527Z,30.10
2023-04-25T18:03:50.176Z,23.10
2023-04-25T18:06:18.294Z,25.50
2023-04-25T18:08:45.929Z,27.17
2023-04-25T18:11:13.100Z,27.90
2023-04-25T18:13:40.729Z,19.40
2023-04-25T18:16:08.204Z,24.60
2023-04-25T18:18:36.159Z,23.77
2023-04-25T18:21:05.604Z,22.73
2023-04-25T18:23:36.557Z,20.63
2023-04-25T18:26:04.311Z,18.77
2023-04-25T18:28:31.231Z,21.23
2023-04-25T18:30:58.177Z,17.57
2023-04-25T18:33:25.246Z,16.37
2023-04-25T18:38:34.910Z,17.47
2023-04-25T18:41:26.945Z,22.00
2023-04-25T18:43:58.587Z,13.40
2023-04-25T18:46:25.767Z,13.10
2023-04-25T18:48:53.845Z,20.50
2023-04-25T18:51:23.460Z,19.47
2023-04-25T18:53:50.508Z,21.17
2023-04-25T18:56:20.949Z,19.40
2023-04-25T18:58:47.971Z,20.27
2023-04-25T19:01:15.380Z,16.40
2023-04-25T19:03:42.318Z,19.10
2023-04-25T19:06:09.510Z,22.60
2023-04-25T19:08:36.764Z,21.30
2023-04-25T19:11:17.937Z,27.00
2023-04-25T19:13:48.492Z,24.40
2023-04-25T19:16:17.379Z,30.93
2023-04-25T19:18:44.584Z,23.77
2023-04-25T19:21:11.803Z,25.77
2023-04-25T19:23:38.631Z,28.20
2023-04-25T19:26:05.788Z,30.93
2023-04-25T19:28:32.752Z,27.30
2023-04-25T19:30:59.833Z,26.13
2023-04-25T19:33:26.621Z,26.30
2023-04-25T19:35:54.159Z,24.20
2023-04-25T19:38:21.267Z,24.97
2023-04-25T19:40:49.163Z,25.67
2023-04-25T19:43:15.924Z,21.07
2023-04-25T19:45:43.034Z,23.40
2023-04-25T19:48:10.391Z,21.63
2023-04-25T19:50:37.643Z,18.50
2023-04-25T19:53:04.450Z,18.93
2023-04-25T19:55:31.978Z,26.10
2023-04-25T19:57:58.707Z,18.60
2023-04-25T20:00:25.779Z,21.40
2023-04-25T20:02:52.674Z,23.97
2023-04-25T20:05:19.798Z,21.90
2023-04-25T20:07:46.754Z,19.77
2023-04-25T20:10:15.594Z,21.03
2023-04-25T20:12:42.492Z,14.83
2023-04-25T20:15:11.498Z,25.80
2023-04-25T20:17:42.527Z,24.17
2023-04-25T20:20:11.069Z,32.87
2023-04-25T20:22:40.156Z,27.93
2023-04-25T20:25:09.128Z,27.13
2023-04-25T20:27:39.493Z,27.57
2023-04-25T20:30:08.672Z,27.03
2023-04-25T20:32:36.988Z,33.90
2023-04-25T20:35:06.137Z,27.57
2023-04-25T20:37:33.257Z,31.33
2023-04-25T20:40:01.851Z,30.90
2023-04-25T20:42:28.635Z,21.17
2023-04-25T20:44:56.179Z,24.87
2023-04-25T20:47:23.462Z,29.00
2023-04-25T20:49:50.466Z,28.30
2023-04-25T20:52:17.980Z,25.70
2023-04-25T20:54:46.078Z,27.53
2023-04-25T20:57:13.010Z,26.13
2023-04-25T20:59:39.963Z,26.03
2023-04-25T21:02:08.778Z,22.33
2023-04-25T21:04:36.207Z,26.77
2023-04-25T21:07:03.252Z,27.80
2023-04-25T21:09:30.269Z,27.80
2023-04-25T21:11:57.148Z,25.70
2023-04-25T21:14:25.528Z,25.80
2023-04-25T21:16:52.383Z,25.80
2023-04-25T21:19:19.367Z,25.13
2023-04-25T21:21:46.184Z,17.23
2023-04-25T21:24:14.348Z,22.63
2023-04-25T21:26:41.122Z,26.33
2023-04-25T21:29:08.222Z,17.60
2023-04-25T21:31:36.657Z,18.17
2023-04-25T21:34:03.834Z,17.23
2023-04-25T21:36:30.606Z,19.23
2023-04-25T21:38:57.569Z,17.80
2023-04-25T21:41:25.584Z,16.13
2023-04-25T21:43:52.580Z,17.47
2023-04-25T21:46:23.751Z,21.30
2023-04-25T21:48:51.557Z,17.13
2023-04-25T21:51:18.736Z,17.43
2023-04-25T21:53:45.873Z,16.30
2023-04-25T21:56:12.623Z,24.47
2023-04-25T21:58:39.600Z,21.10
2023-04-25T22:01:06.533Z,20.10
2023-04-25T22:03:34.121Z,17.53
2023-04-25T22:06:01.221Z,19.83
2023-04-25T22:08:28.224Z,14.10
2023-04-25T22:10:57.934Z,23.83
2023-04-25T22:13:25.845Z,16.60
2023-04-25T22:15:52.835Z,21.40
2023-04-25T22:18:19.885Z,18.40
2023-04-25T22:20:46.655Z,16.07
2023-04-25T22:23:14.118Z,14.90
2023-04-25T22:25:42.009Z,22.03
2023-04-25T22:28:09.003Z,21.90
2023-04-25T22:30:37.163Z,18.67
2023-04-25T22:33:04.287Z,16.77
2023-04-25T22:35:31.042Z,18.40
2023-04-25T22:37:58.245Z,23.90
2023-04-25T22:40:24.973Z,20.30
2023-04-25T22:42:52.027Z,10.87
2023-04-25T22:45:18.884Z,19.83
2023-04-25T22:47:46.415Z,14.13
2023-04-25T22:50:16.434Z,21.07
2023-04-25T22:52:43.691Z,23.60
2023-04-25T22:55:12.447Z,25.03
2023-04-25T22:57:40.789Z,14.77
2023-04-25T23:00:16.576Z,18.33
2023-04-25T23:02:46.503Z,20.57
2023-04-25T23:05:15.077Z,16.80
2023-04-25T23:07:42.429Z,18.87
2023-04-25T23:10:09.710Z,17.50
2023-04-25T23:12:36.946Z,18.73
2023-04-25T23:15:05.177Z,11.53
2023-04-25T23:17:32.614Z,17.10
2023-04-25T23:19:59.663Z,20.93
2023-04-25T23:22:26.860Z,15.40
2023-04-25T23:24:53.934Z,16.53
2023-04-25T23:27:20.948Z,12.60
2023-04-25T23:29:54.747Z,18.73
2023-04-25T23:32:22.400Z,16.80
2023-04-25T23:34:49.407Z,13.80
2023-04-25T23:37:16.621Z,19.80
2023-04-25T23:39:53.365Z,17.37
2023-04-25T23:42:20.626Z,20.77
2023-04-25T23:44:47.364Z,16.73
2023-04-25T23:47:17.513Z,16.30
2023-04-25T23:49:45.640Z,19.93
2023-04-25T23:52:13.097Z,14.20
2023-04-25T23:54:39.781Z,21.27
2023-04-25T23:57:07.146Z,22.97
2023-04-25T23:59:33.999Z,23.77
